createdAt,value
2018-04-30T00:00:01.165Z,89.04
2018-04-30T00:01:01.123Z,88.47
2018-04-30T00:02:01.271Z,89.33
2018-04-30T00:03:01.024Z,89.33
2018-04-30T00:04:01.132Z,88.37
2018-04-30T00:05:01.001Z,89.23
2018-04-30T00:06:01.057Z,89.43
2018-04-30T00:07:00.976Z,89.43
2018-04-30T00:08:01.267Z,88.85
2018-04-30T00:09:00.876Z,88.95
2018-04-30T00:10:01.002Z,89.33
2018-04-30T00:11:00.837Z,88.66
2018-04-30T00:12:00.978Z,88.76
2018-04-30T00:13:00.952Z,89.23
2018-04-30T00:14:01.102Z,89.04
2018-04-30T00:15:00.792Z,89.33
2018-04-30T00:16:01.982Z,88.28
2018-04-30T00:17:00.846Z,89.29
2018-04-30T00:18:00.941Z,89.19
2018-04-30T00:19:00.940Z,88.90
2018-04-30T00:20:01.142Z,88.71
2018-04-30T00:21:00.828Z,88.71
2018-04-30T00:22:01.116Z,89.00
2018-04-30T00:23:00.703Z,89.29
2018-04-30T00:24:00.758Z,89.38
2018-04-30T00:25:00.750Z,89.19
2018-04-30T00:26:01.031Z,88.71
2018-04-30T00:27:00.723Z,89.38
2018-04-30T00:28:01.869Z,88.71
2018-04-30T00:29:00.607Z,88.81
2018-04-30T00:30:00.587Z,88.71
2018-04-30T00:31:00.574Z,88.71
2018-04-30T00:32:00.576Z,88.81
2018-04-30T00:33:00.906Z,88.52
2018-04-30T00:35:00.636Z,89.00
2018-04-30T00:36:00.603Z,89.48
2018-04-30T00:37:00.581Z,88.81
2018-04-30T00:38:00.625Z,88.71
2018-04-30T00:39:00.562Z,89.09
2018-04-30T00:40:00.793Z,89.33
2018-04-30T00:41:00.573Z,89.29
2018-04-30T00:42:00.567Z,89.00
2018-04-30T00:43:00.527Z,89.48
2018-04-30T00:44:00.524Z,88.71
2018-04-30T00:45:00.690Z,89.48
2018-04-30T00:46:00.527Z,89.38
2018-04-30T00:47:00.979Z,89.48
2018-04-30T00:48:00.439Z,89.09
2018-04-30T00:49:00.426Z,89.09
2018-04-30T00:50:00.488Z,88.62
2018-04-30T00:51:00.314Z,89.38
2018-04-30T00:52:00.420Z,88.43
2018-04-30T00:53:00.694Z,89.38
2018-04-30T00:54:00.681Z,88.81
2018-04-30T00:55:00.472Z,89.48
2018-04-30T00:56:00.387Z,89.67
2018-04-30T00:57:00.343Z,89.67
2018-04-30T00:58:00.376Z,89.86
2018-04-30T00:59:00.423Z,89.76
2018-04-30T01:00:00.344Z,90.15
2018-04-30T01:01:00.596Z,90.15
2018-04-30T01:02:00.319Z,89.29
2018-04-30T01:03:00.365Z,89.58
2018-04-30T01:04:00.302Z,90.24
2018-04-30T01:05:00.249Z,89.38
2018-04-30T01:06:00.551Z,89.67
2018-04-30T01:07:00.431Z,89.48
2018-04-30T01:08:00.576Z,89.09
2018-04-30T01:09:00.230Z,90.15
2018-04-30T01:10:00.239Z,90.05
2018-04-30T01:11:00.350Z,90.44
2018-04-30T01:12:00.191Z,89.29
2018-04-30T01:13:00.144Z,90.05
2018-04-30T01:14:00.169Z,89.29
2018-04-30T01:15:00.503Z,89.58
2018-04-30T01:16:00.190Z,90.15
2018-04-30T01:17:00.306Z,90.15
2018-04-30T01:18:00.041Z,90.15
2018-04-30T01:19:00.031Z,89.48
2018-04-30T01:19:59.935Z,89.67
2018-04-30T01:21:00.078Z,90.10
2018-04-30T01:22:00.328Z,89.81
2018-04-30T01:23:00.108Z,88.95
2018-04-30T01:24:00.075Z,89.34
2018-04-30T01:25:00.074Z,90.01
2018-04-30T01:25:59.999Z,90.01
2018-04-30T01:26:59.993Z,88.86
2018-04-30T01:28:00.241Z,89.34
2018-04-30T01:29:00.061Z,89.24
2018-04-30T01:30:00.006Z,89.34
2018-04-30T01:30:59.863Z,89.24
2018-04-30T01:31:59.865Z,89.15
2018-04-30T01:32:59.856Z,89.24
2018-04-30T01:34:00.182Z,88.76
2018-04-30T01:34:59.859Z,89.24
2018-04-30T01:35:59.710Z,89.72
2018-04-30T01:36:59.782Z,89.62
2018-04-30T01:37:59.686Z,89.15
2018-04-30T01:38:59.671Z,89.81
2018-04-30T01:39:59.999Z,89.15
2018-04-30T01:40:59.644Z,89.91
2018-04-30T01:41:59.640Z,89.15
2018-04-30T01:42:59.711Z,89.34
2018-04-30T01:43:59.608Z,90.01
2018-04-30T01:44:59.596Z,88.76
2018-04-30T01:45:59.884Z,89.24
2018-04-30T01:46:59.647Z,89.72
2018-04-30T01:47:59.551Z,89.77
2018-04-30T01:48:59.819Z,89.24
2018-04-30T01:49:59.604Z,89.24
2018-04-30T01:50:59.513Z,89.72
2018-04-30T01:51:59.493Z,89.81
2018-04-30T01:52:59.530Z,89.20
2018-04-30T01:53:59.553Z,88.81
2018-04-30T01:54:59.539Z,89.01
2018-04-30T01:55:59.590Z,89.87
2018-04-30T01:56:59.424Z,89.34
2018-04-30T01:57:59.718Z,90.01
2018-04-30T01:58:59.449Z,89.05
2018-04-30T01:59:59.382Z,89.77
2018-04-30T02:00:59.372Z,89.87
2018-04-30T02:01:59.355Z,89.01
2018-04-30T02:02:59.428Z,89.39
2018-04-30T02:03:59.410Z,89.48
2018-04-30T02:04:59.751Z,88.91
2018-04-30T02:05:59.400Z,89.10
2018-04-30T02:06:59.395Z,89.58
2018-04-30T02:07:59.373Z,89.01
2018-04-30T02:08:59.263Z,89.77
2018-04-30T02:09:59.249Z,89.39
2018-04-30T02:10:59.385Z,89.20
2018-04-30T02:11:59.559Z,89.87
2018-04-30T02:12:59.201Z,89.01
2018-04-30T02:13:59.272Z,89.10
2018-04-30T02:14:59.267Z,89.77
2018-04-30T02:15:59.160Z,89.10
2018-04-30T02:16:59.197Z,89.01
2018-04-30T02:17:59.225Z,88.81
2018-04-30T02:18:59.421Z,89.96
2018-04-30T02:19:59.192Z,89.10
2018-04-30T02:20:59.180Z,89.20
2018-04-30T02:21:59.188Z,88.91
2018-04-30T02:22:59.208Z,89.01
2018-04-30T02:23:59.149Z,89.67
2018-04-30T02:24:59.129Z,89.20
2018-04-30T02:25:59.608Z,89.01
2018-04-30T02:26:59.098Z,88.72
2018-04-30T02:27:59.089Z,89.67
2018-04-30T02:28:59.090Z,89.77
2018-04-30T02:29:59.057Z,89.01
2018-04-30T02:30:59.349Z,88.81
2018-04-30T02:31:58.943Z,89.10
2018-04-30T02:32:59.235Z,89.77
2018-04-30T02:33:58.916Z,89.10
2018-04-30T02:34:59.037Z,89.10
2018-04-30T02:35:58.980Z,89.10
2018-04-30T02:36:58.882Z,89.39
2018-04-30T02:37:58.864Z,88.81
2018-04-30T02:38:58.857Z,88.91
2018-04-30T02:40:58.980Z,88.62
2018-04-30T02:41:59.019Z,88.81
2018-04-30T02:42:58.939Z,88.91
2018-04-30T02:43:58.897Z,88.34
2018-04-30T02:44:58.769Z,88.81
2018-04-30T02:45:58.748Z,88.91
2018-04-30T02:47:00.362Z,88.62
2018-04-30T02:47:58.815Z,88.43
2018-04-30T02:48:58.786Z,88.34
2018-04-30T02:49:58.777Z,88.81
2018-04-30T02:50:58.763Z,89.01
2018-04-30T02:51:58.757Z,88.72
2018-04-30T02:52:58.730Z,88.81
2018-04-30T02:53:59.123Z,88.43
2018-04-30T02:54:58.633Z,89.01
2018-04-30T02:55:58.883Z,88.43
2018-04-30T02:56:58.674Z,89.01
2018-04-30T02:57:58.572Z,89.01
2018-04-30T02:58:58.617Z,89.01
2018-04-30T02:59:59.148Z,89.01
2018-04-30T03:00:58.613Z,88.53
2018-04-30T03:01:58.627Z,88.43
2018-04-30T03:02:58.651Z,89.29
2018-04-30T03:03:58.640Z,88.91
2018-04-30T03:04:58.609Z,88.81
2018-04-30T03:05:58.885Z,89.29
2018-04-30T03:06:58.607Z,88.72
2018-04-30T03:07:58.605Z,88.43
2018-04-30T03:08:58.501Z,88.81
2018-04-30T03:09:58.497Z,88.24
2018-04-30T03:10:58.626Z,88.24
2018-04-30T03:11:58.763Z,88.81
2018-04-30T03:12:58.451Z,88.91
2018-04-30T03:13:58.439Z,89.01
2018-04-30T03:14:58.428Z,88.43
2018-04-30T03:15:58.426Z,88.72
2018-04-30T03:17:58.473Z,88.34
2018-04-30T03:18:58.715Z,88.81
2018-04-30T03:19:58.359Z,88.15
2018-04-30T03:20:58.437Z,88.43
2018-04-30T03:21:58.321Z,88.05
2018-04-30T03:22:58.313Z,88.62
2018-04-30T03:23:58.353Z,88.24
2018-04-30T03:24:58.593Z,88.53
2018-04-30T03:25:58.184Z,88.62
2018-04-30T03:26:58.167Z,88.24
2018-04-30T03:27:58.159Z,88.34
2018-04-30T03:28:58.340Z,88.24
2018-04-30T03:29:58.182Z,88.34
2018-04-30T03:30:58.493Z,87.48
2018-04-30T03:31:58.281Z,87.86
2018-04-30T03:33:58.073Z,88.24
2018-04-30T03:34:58.056Z,87.57
2018-04-30T03:36:01.425Z,88.05
2018-04-30T03:36:58.348Z,87.38
2018-04-30T03:37:58.014Z,87.86
2018-04-30T03:38:58.077Z,88.15
2018-04-30T03:39:58.071Z,88.43
2018-04-30T03:40:58.092Z,87.48
2018-04-30T03:41:58.356Z,87.19
2018-04-30T03:42:58.028Z,87.09
2018-04-30T03:43:58.317Z,87.38
2018-04-30T03:44:57.996Z,87.57
2018-04-30T03:45:59.103Z,87.48
2018-04-30T03:46:57.884Z,87.48
2018-04-30T03:47:57.948Z,87.38
2018-04-30T03:48:57.857Z,87.48
2018-04-30T03:49:57.922Z,87.19
2018-04-30T03:50:58.309Z,87.57
2018-04-30T03:51:57.814Z,87.19
2018-04-30T03:52:57.894Z,87.48
2018-04-30T03:53:57.845Z,87.86
2018-04-30T03:54:57.942Z,87.86
2018-04-30T03:55:57.814Z,88.38
2018-04-30T03:56:57.757Z,88.29
2018-04-30T03:57:58.039Z,88.57
2018-04-30T03:58:58.072Z,89.05
2018-04-30T03:59:59.225Z,88.67
2018-04-30T04:00:58.185Z,88.48
2018-04-30T04:01:57.951Z,87.43
2018-04-30T04:02:57.885Z,87.33
2018-04-30T04:03:57.759Z,88.00
2018-04-30T04:04:58.195Z,88.29
2018-04-30T04:05:57.733Z,88.38
2018-04-30T04:06:57.719Z,87.81
2018-04-30T04:07:57.704Z,87.81
2018-04-30T04:08:57.776Z,88.19
2018-04-30T04:09:57.796Z,88.29
2018-04-30T04:10:57.748Z,88.09
2018-04-30T04:11:58.215Z,87.33
2018-04-30T04:12:57.642Z,88.38
2018-04-30T04:13:57.614Z,87.81
2018-04-30T04:14:57.617Z,88.29
2018-04-30T04:15:58.965Z,88.09
2018-04-30T04:16:57.567Z,88.09
2018-04-30T04:17:57.552Z,88.00
2018-04-30T04:18:57.838Z,88.38
2018-04-30T04:19:57.518Z,88.38
2018-04-30T04:20:57.526Z,88.09
2018-04-30T04:21:57.794Z,88.67
2018-04-30T04:22:57.700Z,88.09
2018-04-30T04:23:57.633Z,88.67
2018-04-30T04:24:58.059Z,88.86
2018-04-30T04:25:57.715Z,88.86
2018-04-30T04:26:57.472Z,88.48
2018-04-30T04:27:57.692Z,88.29
2018-04-30T04:28:57.288Z,88.09
2018-04-30T04:29:57.501Z,88.29
2018-04-30T04:30:57.554Z,88.38
2018-04-30T04:31:57.242Z,88.33
2018-04-30T04:32:57.227Z,89.00
2018-04-30T04:33:57.304Z,89.19
2018-04-30T04:34:57.287Z,89.00
2018-04-30T04:35:57.358Z,88.90
2018-04-30T04:36:57.568Z,89.19
2018-04-30T04:37:57.253Z,89.19
2018-04-30T04:39:57.423Z,90.05
2018-04-30T04:40:57.301Z,89.14
2018-04-30T04:41:57.306Z,89.23
2018-04-30T04:42:57.678Z,89.09
2018-04-30T04:43:57.266Z,88.95
2018-04-30T04:44:57.230Z,88.90
2018-04-30T04:45:57.175Z,89.33
2018-04-30T04:46:57.186Z,89.33
2018-04-30T04:47:57.214Z,89.23
2018-04-30T04:48:57.319Z,89.81
2018-04-30T04:49:57.010Z,89.14
2018-04-30T04:50:56.986Z,89.23
2018-04-30T04:51:56.970Z,90.09
2018-04-30T04:52:56.956Z,89.90
2018-04-30T04:53:57.103Z,89.33
2018-04-30T04:54:57.422Z,89.52
2018-04-30T04:55:57.067Z,89.23
2018-04-30T04:56:57.019Z,89.33
2018-04-30T04:57:57.011Z,89.33
2018-04-30T04:58:56.887Z,89.72
2018-04-30T04:59:56.876Z,89.23
2018-04-30T05:00:57.493Z,89.23
2018-04-30T05:01:56.929Z,88.95
2018-04-30T05:02:56.933Z,89.14
2018-04-30T05:03:56.938Z,88.66
2018-04-30T05:05:57.121Z,90.19
2018-04-30T05:06:57.079Z,89.72
2018-04-30T05:07:56.845Z,89.43
2018-04-30T05:08:56.831Z,89.04
2018-04-30T05:09:56.829Z,89.33
2018-04-30T05:10:56.889Z,88.28
2018-04-30T05:11:56.899Z,87.99
2018-04-30T05:12:56.826Z,88.37
2018-04-30T05:13:56.983Z,87.41
2018-04-30T05:14:56.673Z,86.08
2018-04-30T05:15:56.866Z,88.28
2018-04-30T05:16:56.642Z,86.08
2018-04-30T05:17:56.686Z,86.36
2018-04-30T05:18:56.615Z,85.12
2018-04-30T05:19:56.604Z,84.83
2018-04-30T05:20:56.948Z,86.61
2018-04-30T05:21:56.578Z,85.65
2018-04-30T05:22:56.564Z,83.54
2018-04-30T05:24:56.773Z,84.79
2018-04-30T05:25:56.612Z,84.41
2018-04-30T05:26:56.623Z,84.79
2018-04-30T05:27:56.869Z,83.54
2018-04-30T05:28:56.592Z,83.11
2018-04-30T05:29:56.473Z,82.63
2018-04-30T05:30:56.460Z,85.12
2018-04-30T05:31:56.461Z,84.22
2018-04-30T05:32:56.492Z,85.41
2018-04-30T05:33:56.430Z,83.87
2018-04-30T05:34:56.710Z,82.53
2018-04-30T05:35:56.396Z,83.30
2018-04-30T05:36:56.531Z,83.87
2018-04-30T05:37:56.468Z,82.92
2018-04-30T05:38:56.362Z,84.92
2018-04-30T05:39:56.350Z,83.87
2018-04-30T05:40:56.345Z,85.98
2018-04-30T05:41:58.050Z,83.97
2018-04-30T05:43:56.493Z,84.92
2018-04-30T05:44:56.397Z,85.50
2018-04-30T05:45:56.278Z,84.16
2018-04-30T05:46:56.339Z,86.17
2018-04-30T05:47:56.415Z,84.26
2018-04-30T05:48:56.741Z,85.69
2018-04-30T05:49:56.355Z,86.27
2018-04-30T05:50:56.499Z,86.46
2018-04-30T05:51:56.213Z,85.64
2018-04-30T05:52:56.187Z,85.54
2018-04-30T05:53:56.167Z,85.64
2018-04-30T05:54:56.466Z,85.54
2018-04-30T05:55:56.478Z,85.93
2018-04-30T05:58:56.205Z,87.27
2018-04-30T05:59:56.196Z,87.41
2018-04-30T06:00:56.386Z,87.31
2018-04-30T06:01:56.401Z,88.17
2018-04-30T06:02:56.061Z,88.65
2018-04-30T06:03:56.127Z,88.75
2018-04-30T06:04:56.495Z,89.23
2018-04-30T06:05:56.130Z,89.42
2018-04-30T06:06:56.390Z,88.51
2018-04-30T06:07:56.127Z,89.85
2018-04-30T06:08:55.985Z,88.60
2018-04-30T06:09:55.966Z,88.70
2018-04-30T06:10:55.966Z,90.04
2018-04-30T06:11:56.041Z,90.04
2018-04-30T06:12:56.275Z,89.37
2018-04-30T06:13:56.173Z,88.79
2018-04-30T06:14:56.001Z,88.79
2018-04-30T06:15:55.913Z,89.37
2018-04-30T06:16:55.966Z,89.08
2018-04-30T06:17:56.126Z,89.42
2018-04-30T06:18:56.172Z,89.37
2018-04-30T06:19:55.986Z,89.42
2018-04-30T06:20:55.851Z,88.56
2018-04-30T06:22:56.018Z,88.56
2018-04-30T06:23:55.813Z,88.51
2018-04-30T06:24:56.094Z,90.09
2018-04-30T06:25:55.888Z,88.98
2018-04-30T06:26:55.923Z,89.47
2018-04-30T06:27:55.887Z,89.47
2018-04-30T06:28:55.744Z,88.79
2018-04-30T06:29:55.738Z,88.89
2018-04-30T06:30:56.020Z,89.27
2018-04-30T06:31:55.937Z,90.04
2018-04-30T06:32:55.696Z,89.18
2018-04-30T06:33:55.695Z,89.18
2018-04-30T06:34:55.680Z,89.27
2018-04-30T06:35:55.676Z,89.47
2018-04-30T06:36:55.961Z,88.98
2018-04-30T06:37:55.755Z,89.47
2018-04-30T06:38:55.651Z,89.65
2018-04-30T06:39:55.626Z,89.61
2018-04-30T06:42:55.891Z,89.56
2018-04-30T06:43:55.575Z,90.14
2018-04-30T06:44:55.837Z,89.94
2018-04-30T06:45:55.814Z,89.47
2018-04-30T06:46:55.536Z,89.65
2018-04-30T06:47:55.528Z,89.41
2018-04-30T06:48:55.525Z,88.84
2018-04-30T06:49:55.863Z,89.32
2018-04-30T06:50:55.490Z,89.41
2018-04-30T06:51:55.485Z,89.51
2018-04-30T06:52:55.469Z,89.65
2018-04-30T06:53:55.465Z,90.18
2018-04-30T06:54:55.618Z,89.51
2018-04-30T06:55:55.489Z,89.32
2018-04-30T06:56:55.735Z,90.08
2018-04-30T06:57:55.542Z,89.70
2018-04-30T06:59:55.511Z,90.08
2018-04-30T07:00:55.380Z,89.61
2018-04-30T07:01:56.724Z,89.32
2018-04-30T07:02:55.365Z,89.79
2018-04-30T07:03:55.749Z,90.28
2018-04-30T07:04:55.335Z,90.18
2018-04-30T07:05:55.861Z,90.18
2018-04-30T07:06:55.323Z,90.18
2018-04-30T07:07:55.952Z,89.99
2018-04-30T07:08:55.416Z,90.08
2018-04-30T07:09:55.802Z,89.51
2018-04-30T07:10:55.690Z,89.99
2018-04-30T07:11:55.474Z,90.28
2018-04-30T07:12:55.362Z,90.08
2018-04-30T07:13:55.942Z,90.13
2018-04-30T07:14:55.359Z,90.13
2018-04-30T07:16:55.778Z,90.22
2018-04-30T07:17:55.599Z,90.99
2018-04-30T07:18:55.392Z,90.52
2018-04-30T07:19:55.306Z,90.61
2018-04-30T07:20:55.307Z,90.80
2018-04-30T07:21:55.307Z,90.52
2018-04-30T07:22:55.235Z,90.80
2018-04-30T07:24:55.340Z,90.22
2018-04-30T07:25:55.393Z,90.22
2018-04-30T07:26:55.780Z,90.70
2018-04-30T07:27:56.544Z,90.61
2018-04-30T07:28:55.701Z,90.18
2018-04-30T07:29:55.533Z,89.41
2018-04-30T07:30:55.201Z,90.22
2018-04-30T07:32:55.457Z,89.32
2018-04-30T07:33:55.080Z,89.94
2018-04-30T07:34:55.021Z,90.22
2018-04-30T07:35:55.416Z,90.32
2018-04-30T07:36:55.002Z,90.13
2018-04-30T07:37:55.094Z,89.65
2018-04-30T07:38:54.983Z,89.32
2018-04-30T07:39:54.977Z,89.89
2018-04-30T07:40:55.132Z,90.37
2018-04-30T07:41:55.286Z,89.94
2018-04-30T07:42:55.027Z,89.36
2018-04-30T07:43:55.017Z,89.55
2018-04-30T07:44:55.121Z,89.55
2018-04-30T07:45:54.920Z,89.75
2018-04-30T07:46:54.898Z,89.46
2018-04-30T07:47:55.189Z,89.55
2018-04-30T07:48:54.892Z,90.13
2018-04-30T07:49:54.877Z,89.55
2018-04-30T07:50:54.908Z,90.17
2018-04-30T07:51:54.847Z,90.17
2018-04-30T07:52:54.835Z,90.94
2018-04-30T07:53:55.519Z,90.17
2018-04-30T07:54:54.817Z,90.17
2018-04-30T07:55:54.807Z,90.17
2018-04-30T07:56:54.884Z,90.46
2018-04-30T07:57:54.784Z,90.27
2018-04-30T07:58:54.860Z,90.75
2018-04-30T07:59:55.067Z,90.17
2018-04-30T08:00:54.752Z,90.37
2018-04-30T08:01:54.741Z,90.84
2018-04-30T08:02:54.785Z,89.79
2018-04-30T08:03:54.725Z,91.04
2018-04-30T08:04:54.714Z,90.37
2018-04-30T08:05:55.004Z,90.41
2018-04-30T08:06:54.696Z,90.17
2018-04-30T08:08:55.265Z,90.22
2018-04-30T08:09:54.699Z,89.60
2018-04-30T08:10:54.654Z,90.56
2018-04-30T08:11:54.649Z,90.41
2018-04-30T08:12:54.940Z,91.28
2018-04-30T08:13:54.627Z,90.41
2018-04-30T08:14:54.759Z,91.13
2018-04-30T08:15:54.617Z,91.22
2018-04-30T08:16:54.595Z,91.90
2018-04-30T08:17:54.641Z,91.75
2018-04-30T08:18:54.587Z,91.31
2018-04-30T08:19:54.608Z,91.51
2018-04-30T08:20:54.649Z,92.22
2018-04-30T08:21:54.600Z,92.22
2018-04-30T08:22:54.540Z,93.04
2018-04-30T08:23:54.528Z,92.71
2018-04-30T08:24:54.535Z,92.46
2018-04-30T08:25:54.815Z,92.22
2018-04-30T08:26:54.944Z,92.36
2018-04-30T08:27:54.579Z,91.69
2018-04-30T08:28:54.577Z,92.41
2018-04-30T08:29:54.493Z,92.85
2018-04-30T08:30:54.472Z,91.98
2018-04-30T08:31:54.466Z,92.32
2018-04-30T08:32:54.760Z,92.80
2018-04-30T08:33:54.455Z,92.56
2018-04-30T08:34:54.531Z,93.43
2018-04-30T08:35:59.521Z,92.75
2018-04-30T08:36:54.448Z,92.08
2018-04-30T08:37:54.497Z,91.78
2018-04-30T08:38:54.463Z,91.98
2018-04-30T08:39:54.782Z,92.65
2018-04-30T08:40:54.401Z,92.32
2018-04-30T08:41:54.467Z,92.41
2018-04-30T08:42:54.386Z,91.78
2018-04-30T08:43:54.372Z,90.09
2018-04-30T08:44:54.372Z,90.48
2018-04-30T08:45:54.357Z,91.30
2018-04-30T08:46:54.651Z,92.37
2018-04-30T08:47:54.353Z,92.32
2018-04-30T08:48:54.419Z,92.71
2018-04-30T08:49:54.416Z,91.94
2018-04-30T08:50:54.379Z,92.71
2018-04-30T08:51:54.316Z,92.42
2018-04-30T08:52:54.305Z,92.52
2018-04-30T08:53:54.606Z,92.22
2018-04-30T08:54:54.312Z,92.32
2018-04-30T08:55:54.287Z,92.66
2018-04-30T08:56:54.454Z,92.38
2018-04-30T08:57:54.262Z,92.33
2018-04-30T08:58:54.287Z,92.43
2018-04-30T08:59:54.247Z,92.81
2018-04-30T09:00:54.753Z,92.13
2018-04-30T09:01:54.233Z,92.85
2018-04-30T09:02:54.223Z,92.85
2018-04-30T09:03:54.324Z,92.18
2018-04-30T09:04:54.219Z,92.38
2018-04-30T09:05:54.305Z,92.08
2018-04-30T09:06:54.583Z,92.18
2018-04-30T09:07:54.272Z,92.38
2018-04-30T09:08:54.305Z,91.94
2018-04-30T09:09:54.273Z,92.71
2018-04-30T09:10:54.263Z,92.81
2018-04-30T09:11:54.150Z,92.71
2018-04-30T09:12:54.532Z,92.57
2018-04-30T09:13:54.124Z,92.76
2018-04-30T09:14:54.168Z,92.18
2018-04-30T09:15:59.676Z,92.66
2018-04-30T09:16:54.101Z,92.13
2018-04-30T09:17:54.144Z,92.71
2018-04-30T09:18:54.386Z,92.32
2018-04-30T09:19:54.072Z,92.08
2018-04-30T09:20:54.111Z,91.45
2018-04-30T09:21:54.068Z,91.06
2018-04-30T09:22:54.052Z,92.08
2018-04-30T09:23:54.073Z,92.42
2018-04-30T09:24:54.331Z,92.08
2018-04-30T09:25:54.021Z,92.47
2018-04-30T09:26:54.077Z,93.15
2018-04-30T09:27:54.009Z,92.90
2018-04-30T09:28:54.007Z,91.94
2018-04-30T09:29:53.990Z,92.52
2018-04-30T09:30:54.283Z,92.13
2018-04-30T09:31:53.974Z,91.80
2018-04-30T09:32:55.359Z,92.61
2018-04-30T09:33:54.047Z,92.22
2018-04-30T09:34:53.964Z,92.61
2018-04-30T09:35:54.039Z,92.76
2018-04-30T09:36:54.414Z,92.61
2018-04-30T09:37:53.925Z,92.38
2018-04-30T09:38:53.967Z,92.47
2018-04-30T09:39:53.919Z,92.66
2018-04-30T09:40:53.951Z,92.47
2018-04-30T09:41:53.934Z,92.85
2018-04-30T09:42:54.187Z,92.76
2018-04-30T09:43:53.885Z,93.19
2018-04-30T09:44:53.883Z,92.71
2018-04-30T09:45:54.069Z,92.61
2018-04-30T09:46:54.080Z,92.71
2018-04-30T09:47:54.061Z,92.71
2018-04-30T09:48:53.953Z,93.48
2018-04-30T09:49:54.167Z,92.61
2018-04-30T09:50:53.970Z,93.24
2018-04-30T09:51:53.876Z,92.67
2018-04-30T09:52:53.887Z,92.67
2018-04-30T09:53:53.901Z,92.96
2018-04-30T09:54:53.778Z,92.52
2018-04-30T09:55:53.848Z,93.01
2018-04-30T09:56:54.154Z,92.62
2018-04-30T09:57:53.760Z,92.72
2018-04-30T09:58:53.731Z,93.44
2018-04-30T09:59:53.723Z,92.77
2018-04-30T10:00:53.715Z,93.15
2018-04-30T10:01:53.702Z,93.05
2018-04-30T10:02:53.781Z,92.96
2018-04-30T10:03:54.079Z,93.25
2018-04-30T10:04:53.882Z,92.72
2018-04-30T10:05:53.761Z,93.01
2018-04-30T10:06:53.748Z,93.05
2018-04-30T10:07:53.739Z,93.01
2018-04-30T10:08:53.750Z,93.10
2018-04-30T10:09:53.800Z,92.91
2018-04-30T10:10:53.909Z,93.20
2018-04-30T10:11:53.902Z,92.53
2018-04-30T10:12:53.682Z,92.57
2018-04-30T10:13:53.581Z,93.10
2018-04-30T10:14:53.944Z,93.20
2018-04-30T10:15:53.795Z,92.86
2018-04-30T10:16:53.627Z,92.82
2018-04-30T10:17:53.930Z,93.01
2018-04-30T10:18:53.605Z,92.72
2018-04-30T10:19:53.512Z,92.82
2018-04-30T10:20:55.031Z,93.10
2018-04-30T10:21:55.061Z,92.63
2018-04-30T10:22:53.687Z,92.82
2018-04-30T10:23:54.994Z,92.63
2018-04-30T10:24:53.804Z,92.82
2018-04-30T10:25:53.528Z,92.91
2018-04-30T10:26:53.527Z,92.96
2018-04-30T10:27:53.430Z,93.06
2018-04-30T10:28:53.425Z,92.82
2018-04-30T10:29:53.409Z,92.86
2018-04-30T10:30:53.448Z,92.58
2018-04-30T10:31:53.704Z,92.68
2018-04-30T10:32:53.430Z,92.34
2018-04-30T10:33:53.355Z,92.86
2018-04-30T10:34:53.344Z,92.82
2018-04-30T10:35:53.425Z,92.68
2018-04-30T10:36:53.420Z,93.25
2018-04-30T10:37:53.656Z,93.01
2018-04-30T10:38:53.382Z,92.82
2018-04-30T10:39:53.371Z,92.72
2018-04-30T10:40:53.281Z,92.82
2018-04-30T10:41:53.261Z,92.91
2018-04-30T10:42:53.332Z,92.82
2018-04-30T10:43:53.538Z,92.82
2018-04-30T10:44:53.232Z,92.91
2018-04-30T10:45:53.318Z,92.82
2018-04-30T10:46:53.643Z,92.82
2018-04-30T10:47:53.288Z,93.01
2018-04-30T10:48:53.274Z,93.01
2018-04-30T10:49:53.583Z,93.01
2018-04-30T10:50:53.421Z,93.21
2018-04-30T10:51:53.240Z,92.91
2018-04-30T10:52:53.235Z,93.01
2018-04-30T10:53:53.207Z,92.82
2018-04-30T10:54:53.219Z,93.30
2018-04-30T10:55:53.441Z,93.11
2018-04-30T10:56:53.226Z,93.01
2018-04-30T10:57:53.081Z,93.01
2018-04-30T10:58:53.066Z,92.82
2018-04-30T10:59:53.150Z,93.11
2018-04-30T11:00:53.140Z,92.82
2018-04-30T11:01:53.337Z,92.86
2018-04-30T11:02:53.230Z,92.86
2018-04-30T11:03:53.221Z,93.01
2018-04-30T11:04:53.222Z,93.01
2018-04-30T11:05:53.118Z,92.82
2018-04-30T11:06:53.021Z,92.58
2018-04-30T11:07:53.392Z,92.82
2018-04-30T11:08:53.230Z,92.34
2018-04-30T11:09:52.944Z,93.01
2018-04-30T11:10:52.937Z,91.96
2018-04-30T11:11:52.922Z,92.34
2018-04-30T11:12:52.916Z,92.30
2018-04-30T11:13:53.232Z,92.05
2018-04-30T11:14:52.993Z,91.72
2018-04-30T11:15:52.872Z,91.63
2018-04-30T11:16:52.857Z,91.43
2018-04-30T11:17:52.937Z,91.53
2018-04-30T11:18:52.924Z,91.24
2018-04-30T11:19:53.137Z,90.95
2018-04-30T11:20:52.812Z,91.91
2018-04-30T11:21:52.892Z,91.24
2018-04-30T11:22:52.874Z,91.63
2018-04-30T11:23:52.780Z,90.47
2018-04-30T11:24:52.768Z,91.43
2018-04-30T11:25:52.763Z,92.49
2018-04-30T11:26:53.044Z,91.19
2018-04-30T11:27:52.745Z,91.39
2018-04-30T11:28:52.726Z,91.29
2018-04-30T11:29:52.708Z,90.43
2018-04-30T11:30:52.705Z,91.29
2018-04-30T11:31:52.683Z,90.43
2018-04-30T11:32:52.983Z,91.10
2018-04-30T11:33:52.993Z,91.29
2018-04-30T11:34:52.652Z,90.43
2018-04-30T11:35:52.643Z,90.23
2018-04-30T11:36:52.638Z,90.53
2018-04-30T11:37:52.634Z,90.23
2018-04-30T11:38:52.652Z,89.95
2018-04-30T11:39:52.602Z,90.23
2018-04-30T11:40:52.876Z,90.81
2018-04-30T11:41:52.555Z,89.47
2018-04-30T11:42:52.546Z,90.33
2018-04-30T11:43:52.547Z,90.72
2018-04-30T11:44:52.520Z,91.19
2018-04-30T11:45:52.510Z,91.39
2018-04-30T11:46:52.501Z,90.43
2018-04-30T11:47:52.781Z,90.72
2018-04-30T11:48:52.467Z,91.67
2018-04-30T11:49:52.552Z,91.49
2018-04-30T11:50:52.628Z,90.23
2018-04-30T11:51:52.437Z,91.29
2018-04-30T11:52:52.437Z,91.49
2018-04-30T11:53:52.425Z,90.91
2018-04-30T11:54:52.701Z,90.81
2018-04-30T11:55:52.398Z,90.72
2018-04-30T11:56:52.427Z,90.14
2018-04-30T11:57:52.362Z,90.43
2018-04-30T11:58:52.463Z,92.44
2018-04-30T11:59:52.347Z,90.43
2018-04-30T12:00:52.631Z,89.86
2018-04-30T12:01:52.641Z,89.09
2018-04-30T12:02:52.337Z,89.95
2018-04-30T12:03:52.293Z,88.90
2018-04-30T12:04:52.348Z,89.43
2018-04-30T12:05:52.255Z,88.13
2018-04-30T12:06:52.257Z,86.46
2018-04-30T12:07:52.238Z,87.80
2018-04-30T12:08:52.510Z,85.79
2018-04-30T12:09:52.214Z,86.84
2018-04-30T12:10:52.198Z,84.83
2018-04-30T12:11:52.186Z,87.03
2018-04-30T12:12:52.173Z,85.88
2018-04-30T12:13:52.214Z,85.17
2018-04-30T12:15:52.213Z,85.55
2018-04-30T12:16:52.116Z,85.41
2018-04-30T12:17:52.124Z,85.65
2018-04-30T12:18:52.288Z,84.69
2018-04-30T12:19:52.066Z,84.92
2018-04-30T12:20:52.666Z,85.02
2018-04-30T12:21:52.115Z,83.30
2018-04-30T12:22:52.138Z,88.76
2018-04-30T12:23:52.275Z,87.90
2018-04-30T12:24:52.005Z,85.60
2018-04-30T12:25:52.008Z,87.80
2018-04-30T12:26:52.385Z,87.23
2018-04-30T12:27:51.989Z,86.36
2018-04-30T12:28:51.962Z,86.36
2018-04-30T12:29:52.077Z,87.84
2018-04-30T12:30:52.013Z,88.61
2018-04-30T12:31:51.915Z,88.23
2018-04-30T12:32:52.297Z,87.41
2018-04-30T12:33:51.943Z,89.51
2018-04-30T12:34:51.984Z,89.90
2018-04-30T12:35:51.872Z,89.61
2018-04-30T12:36:51.988Z,89.13
2018-04-30T12:37:51.979Z,88.75
2018-04-30T12:38:53.484Z,87.21
2018-04-30T12:39:52.014Z,87.31
2018-04-30T12:40:51.801Z,88.61
2018-04-30T12:41:51.809Z,90.14
2018-04-30T12:42:51.994Z,88.70
2018-04-30T12:43:51.797Z,86.21
2018-04-30T12:44:51.836Z,87.61
2018-04-30T12:45:51.909Z,88.32
2018-04-30T12:46:51.737Z,90.39
2018-04-30T12:47:52.936Z,89.72
2018-04-30T12:48:51.833Z,90.48
2018-04-30T12:49:51.893Z,90.58
2018-04-30T12:50:52.163Z,90.58
2018-04-30T12:51:51.681Z,90.67
2018-04-30T12:52:51.752Z,90.29
2018-04-30T12:53:52.026Z,91.63
2018-04-30T12:54:51.636Z,91.53
2018-04-30T12:55:51.636Z,90.62
2018-04-30T12:56:51.822Z,91.44
2018-04-30T12:57:51.897Z,90.86
2018-04-30T12:58:51.677Z,90.39
2018-04-30T12:59:51.674Z,91.53
2018-04-30T13:00:51.661Z,91.44
2018-04-30T13:01:51.558Z,92.21
2018-04-30T13:02:51.698Z,93.40
2018-04-30T13:03:51.629Z,93.11
2018-04-30T13:04:51.973Z,92.77
2018-04-30T13:05:51.515Z,91.91
2018-04-30T13:06:51.492Z,92.86
2018-04-30T13:07:51.607Z,92.68
2018-04-30T13:08:52.856Z,92.72
2018-04-30T13:09:51.470Z,93.15
2018-04-30T13:10:51.460Z,91.67